createdAt,value
2023-04-16T00:02:05.151Z,7.68
2023-04-16T00:07:06.720Z,8.93
2023-04-16T00:12:08.464Z,8.75
2023-04-16T00:17:10.494Z,8.40
2023-04-16T00:22:12.115Z,7.43
2023-04-16T00:27:13.810Z,8.55
2023-04-16T00:32:15.876Z,8.93
2023-04-16T00:37:17.475Z,10.45
2023-04-16T00:42:18.994Z,12.18
2023-04-16T00:47:21.277Z,11.95
2023-04-16T00:52:22.726Z,12.77
2023-04-16T00:57:24.354Z,12.15
2023-04-16T01:02:25.973Z,10.25
2023-04-16T01:07:27.562Z,9.55
2023-04-16T01:12:29.020Z,13.45
2023-04-16T01:17:30.573Z,14.05
2023-04-16T01:22:32.550Z,14.70
2023-04-16T01:27:35.434Z,14.68
2023-04-16T01:32:36.997Z,13.23
2023-04-16T01:37:38.522Z,13.85
2023-04-16T01:42:40.026Z,13.15
2023-04-16T01:47:42.074Z,15.60
2023-04-16T01:52:44.009Z,13.65
2023-04-16T01:57:45.555Z,11.48
2023-04-16T02:02:47.340Z,14.13
2023-04-16T02:07:49.536Z,13.50
2023-04-16T02:12:51.278Z,15.20
2023-04-16T02:17:56.937Z,16.25
2023-04-16T02:22:58.699Z,17.02
2023-04-16T02:28:00.414Z,21.00
2023-04-16T02:33:03.738Z,16.25
2023-04-16T02:38:05.404Z,15.73
2023-04-16T02:43:06.810Z,16.90
2023-04-16T02:48:09.708Z,18.13
2023-04-16T02:53:11.692Z,17.45
2023-04-16T02:58:13.221Z,18.77
2023-04-16T03:03:14.823Z,18.52
2023-04-16T03:08:16.352Z,17.92
2023-04-16T03:13:17.853Z,17.73
2023-04-16T03:18:19.396Z,17.45
2023-04-16T03:23:20.904Z,17.52
2023-04-16T03:28:22.473Z,20.88
2023-04-16T03:33:24.025Z,16.40
2023-04-16T03:38:26.726Z,17.08
2023-04-16T03:43:28.350Z,18.25
2023-04-16T03:48:29.781Z,14.25
2023-04-16T03:53:31.233Z,17.77
2023-04-16T03:58:32.647Z,16.45
2023-04-16T04:03:34.427Z,15.90
2023-04-16T04:08:36.063Z,19.63
2023-04-16T04:13:37.638Z,21.67
2023-04-16T04:18:39.090Z,18.08
2023-04-16T04:23:41.759Z,19.63
2023-04-16T04:28:43.328Z,21.08
2023-04-16T04:33:44.741Z,18.95
2023-04-16T04:38:46.259Z,19.92
2023-04-16T04:43:47.768Z,20.42
2023-04-16T04:48:49.254Z,18.30
2023-04-16T04:53:50.696Z,16.73
2023-04-16T04:58:52.248Z,21.75
2023-04-16T05:03:53.726Z,18.02
2023-04-16T05:08:55.407Z,17.98
2023-04-16T05:13:57.088Z,20.25
2023-04-16T05:18:58.568Z,20.33
2023-04-16T05:24:00.386Z,15.02
2023-04-16T05:29:01.940Z,15.48
2023-04-16T05:34:03.440Z,16.45
2023-04-16T05:39:04.906Z,16.55
2023-04-16T05:44:06.457Z,15.25
2023-04-16T05:49:08.371Z,15.90
2023-04-16T05:54:09.971Z,17.63
2023-04-16T05:59:11.555Z,12.52
2023-04-16T06:04:13.482Z,13.20
2023-04-16T06:09:15.510Z,12.25
2023-04-16T06:14:17.000Z,11.45
2023-04-16T06:19:18.556Z,10.80
2023-04-16T06:24:20.037Z,12.93
2023-04-16T06:29:24.153Z,11.82
2023-04-16T06:34:32.187Z,10.18
2023-04-16T06:39:33.673Z,9.50
2023-04-16T06:44:35.718Z,10.77
2023-04-16T06:49:37.266Z,8.90
2023-04-16T06:54:39.318Z,8.90
2023-04-16T06:59:40.834Z,11.48
2023-04-16T07:04:42.489Z,8.32
2023-04-16T07:09:44.014Z,10.02
2023-04-16T07:14:45.486Z,6.85
2023-04-16T07:19:46.999Z,6.93
2023-04-16T07:24:48.507Z,8.63
2023-04-16T07:29:50.457Z,9.82
2023-04-16T07:34:51.987Z,11.48
2023-04-16T07:39:55.122Z,8.50
2023-04-16T07:44:57.644Z,8.85
2023-04-16T07:49:59.151Z,11.35
2023-04-16T07:55:00.680Z,10.23
2023-04-16T08:00:05.026Z,9.70
2023-04-16T08:05:07.020Z,16.30
2023-04-16T08:10:08.945Z,10.88
2023-04-16T08:15:10.549Z,16.50
2023-04-16T08:20:15.760Z,14.27
2023-04-16T08:25:20.347Z,12.70
2023-04-16T08:30:22.140Z,19.25
2023-04-16T08:35:23.937Z,20.20
2023-04-16T08:40:26.373Z,22.38
2023-04-16T08:45:28.056Z,18.02
2023-04-16T08:50:29.929Z,18.80
2023-04-16T08:55:36.371Z,15.80
2023-04-16T09:00:37.994Z,14.02
2023-04-16T09:05:39.637Z,16.05
2023-04-16T09:10:41.135Z,14.50
2023-04-16T09:15:42.921Z,14.05
2023-04-16T09:20:44.421Z,11.88
2023-04-16T09:25:46.104Z,15.77
2023-04-16T09:30:47.601Z,12.10
2023-04-16T09:35:50.266Z,15.05
2023-04-16T09:41:06.650Z,13.90
2023-04-16T09:46:11.412Z,17.38
2023-04-16T09:51:13.144Z,20.60
2023-04-16T09:56:14.821Z,19.95
2023-04-16T10:01:18.305Z,25.23
2023-04-16T10:06:20.788Z,26.83
2023-04-16T10:11:22.462Z,23.77
2023-04-16T10:16:24.327Z,26.15
2023-04-16T10:21:34.127Z,24.13
2023-04-16T10:26:36.333Z,26.50
2023-04-16T10:31:38.777Z,25.58
2023-04-16T10:36:40.413Z,28.35
2023-04-16T10:41:42.771Z,24.38
2023-04-16T10:46:49.863Z,22.52
2023-04-16T10:51:55.675Z,23.52
2023-04-16T10:56:58.345Z,28.60
2023-04-16T11:02:03.969Z,26.75
2023-04-16T11:07:08.660Z,21.70
2023-04-16T11:12:12.052Z,21.13
2023-04-16T11:17:13.639Z,17.90
2023-04-16T11:22:17.279Z,20.33
2023-04-16T11:27:19.371Z,19.17
2023-04-16T11:32:22.739Z,21.25
2023-04-16T11:37:34.516Z,23.83
2023-04-16T11:42:42.798Z,28.55
2023-04-16T11:47:55.492Z,21.92
2023-04-16T11:52:57.960Z,26.17
2023-04-16T11:58:11.165Z,20.70
2023-04-16T12:03:13.800Z,26.67
2023-04-16T12:08:28.436Z,21.27
2023-04-16T12:13:30.646Z,24.13
2023-04-16T12:18:32.256Z,20.58
2023-04-16T12:23:33.907Z,26.85
2023-04-16T12:28:38.792Z,24.67
2023-04-16T12:33:40.581Z,20.67
2023-04-16T12:38:42.036Z,19.50
2023-04-16T12:43:43.600Z,21.15
2023-04-16T12:48:45.086Z,23.50
2023-04-16T12:53:46.570Z,22.30
2023-04-16T12:58:51.670Z,18.88
2023-04-16T13:03:53.529Z,21.77
2023-04-16T13:08:55.308Z,18.48
2023-04-16T13:13:56.819Z,24.08
2023-04-16T13:18:58.269Z,25.38
2023-04-16T13:23:59.854Z,23.98
2023-04-16T13:29:01.328Z,22.77
2023-04-16T13:34:03.728Z,25.63
2023-04-16T13:39:11.723Z,22.08
2023-04-16T13:44:13.418Z,25.30
2023-04-16T13:49:15.091Z,21.30
2023-04-16T13:54:16.726Z,25.48
2023-04-16T13:59:19.366Z,25.90
2023-04-16T14:04:22.523Z,23.60
2023-04-16T14:09:24.584Z,28.42
2023-04-16T14:14:26.348Z,21.35
2023-04-16T14:19:27.822Z,29.08
2023-04-16T14:24:29.280Z,32.25
2023-04-16T14:29:30.784Z,26.17
2023-04-16T14:34:32.323Z,25.27
2023-04-16T14:39:34.090Z,28.10
2023-04-16T14:44:35.742Z,22.73
2023-04-16T14:49:37.404Z,27.50
2023-04-16T14:54:39.007Z,21.38
2023-04-16T14:59:40.608Z,23.70
2023-04-16T15:04:42.090Z,24.23
2023-04-16T15:09:43.563Z,24.98
2023-04-16T15:14:45.080Z,23.50
2023-04-16T15:19:46.640Z,25.58
2023-04-16T15:24:48.160Z,27.30
2023-04-16T15:29:49.725Z,25.45
2023-04-16T15:34:51.808Z,27.45
2023-04-16T15:39:53.365Z,26.25
2023-04-16T15:44:54.878Z,30.27
2023-04-16T15:49:56.359Z,23.45
2023-04-16T15:54:57.953Z,24.58
2023-04-16T16:00:07.083Z,27.88
2023-04-16T16:05:18.605Z,31.38
2023-04-16T16:10:20.462Z,29.48
2023-04-16T16:15:22.112Z,30.48
2023-04-16T16:20:24.714Z,26.88
2023-04-16T16:25:26.284Z,27.70
2023-04-16T16:30:27.744Z,28.23
2023-04-16T16:35:29.182Z,26.23
2023-04-16T16:40:31.280Z,23.80
2023-04-16T16:45:32.748Z,30.27
2023-04-16T16:50:34.338Z,26.00
2023-04-16T16:55:35.896Z,24.77
2023-04-16T17:00:37.898Z,25.88
2023-04-16T17:05:39.639Z,27.40
2023-04-16T17:10:41.299Z,26.65
2023-04-16T17:15:42.808Z,30.13
2023-04-16T17:20:44.242Z,27.17
2023-04-16T17:25:45.923Z,29.15
2023-04-16T17:30:52.096Z,25.15
2023-04-16T17:35:53.556Z,28.15
2023-04-16T17:40:57.052Z,23.33
2023-04-16T17:45:58.884Z,25.02
2023-04-16T17:51:00.524Z,29.70
2023-04-16T17:56:02.366Z,28.15
2023-04-16T18:01:04.272Z,31.75
2023-04-16T18:06:05.808Z,27.92
2023-04-16T18:11:08.489Z,27.30
2023-04-16T18:16:16.773Z,28.75
2023-04-16T18:21:18.469Z,23.90
2023-04-16T18:26:22.276Z,29.33
2023-04-16T18:31:24.716Z,25.38
2023-04-16T18:36:27.076Z,26.20
2023-04-16T18:41:28.808Z,28.25
2023-04-16T18:46:30.480Z,28.13
2023-04-16T18:51:32.111Z,26.88
2023-04-16T18:56:33.624Z,29.23
2023-04-16T19:01:35.212Z,28.00
2023-04-16T19:06:36.801Z,33.75
2023-04-16T19:11:38.334Z,25.88
2023-04-16T19:16:39.913Z,25.60
2023-04-16T19:21:41.625Z,24.52
2023-04-16T19:26:43.168Z,33.20
2023-04-16T19:31:47.275Z,25.80
2023-04-16T19:36:48.901Z,26.35
2023-04-16T19:41:50.564Z,26.65
2023-04-16T19:46:52.030Z,28.52
2023-04-16T19:51:53.664Z,25.92
2023-04-16T19:56:55.255Z,28.02
2023-04-16T20:01:56.882Z,26.25
2023-04-16T20:06:58.626Z,27.23
2023-04-16T20:12:01.122Z,27.67
2023-04-16T20:17:02.812Z,29.83
2023-04-16T20:22:04.473Z,28.25
2023-04-16T20:27:06.379Z,28.92
2023-04-16T20:32:07.936Z,29.60
2023-04-16T20:37:10.703Z,30.52
2023-04-16T20:42:12.899Z,29.23
2023-04-16T20:47:16.919Z,33.65
2023-04-16T20:52:18.508Z,28.00
2023-04-16T20:57:20.094Z,30.25
2023-04-16T21:02:21.637Z,28.13
2023-04-16T21:07:23.206Z,24.73
2023-04-16T21:12:24.696Z,26.85
2023-04-16T21:17:26.221Z,27.60
2023-04-16T21:22:28.623Z,29.10
2023-04-16T21:27:30.150Z,27.15
2023-04-16T21:32:31.695Z,26.02
2023-04-16T21:37:33.212Z,24.85
2023-04-16T21:42:40.023Z,29.95
2023-04-16T21:47:41.615Z,23.48
2023-04-16T21:52:46.768Z,27.75
2023-04-16T21:57:48.300Z,28.30
2023-04-16T22:02:49.917Z,29.58
2023-04-16T22:07:51.984Z,26.33
2023-04-16T22:12:53.757Z,23.17
2023-04-16T22:17:55.314Z,22.48
2023-04-16T22:22:58.682Z,25.98
2023-04-16T22:28:01.565Z,26.55
2023-04-16T22:33:03.929Z,27.40
2023-04-16T22:38:05.738Z,24.35
2023-04-16T22:43:07.243Z,27.25
2023-04-16T22:48:08.773Z,25.17
2023-04-16T22:53:10.549Z,27.77
2023-04-16T22:58:12.025Z,25.92
2023-04-16T23:03:13.766Z,26.73
2023-04-16T23:08:15.461Z,25.27
2023-04-16T23:13:17.433Z,26.30
2023-04-16T23:18:20.460Z,26.48
2023-04-16T23:23:21.972Z,31.15
2023-04-16T23:28:23.426Z,26.42
2023-04-16T23:33:24.887Z,25.88
2023-04-16T23:38:26.360Z,26.60
2023-04-16T23:43:27.898Z,28.08
2023-04-16T23:48:29.472Z,28.83
2023-04-16T23:53:30.991Z,33.38
2023-04-16T23:58:32.484Z,30.83
